708  
SXUS55 KTFX 200806  
OSOTFX  
 
AREA AWOS OBSERVATIONS  
NATIONAL WEATHER SERVICE GREAT FALLS MT  
0206 AM MDT WED OCT 20 2021  
 
METAR K9S2 200755Z AUTO 00000KT M07/M12 A3028 RMK SCOBEY  
METAR K9S5 200755Z AUTO 00000KT 10SM M02/M04 A3011 RMK THREE FORKS  
METAR KRPX 200755Z AUTO 21004KT A3013 RMK ROUNDUP  
METAR KS34 200655Z AUTO 00000KT 10SM 00/M07 A2996 RMK PLAINS  
METAR KTHM 200755Z AUTO 00000KT 10SM 03/M01 A2999 RMK THOMPSON FALLS  
 
CLICK HERE TO GO TO PREVIOUS BULLETINS.

The Nexlab MT Page Main Text Page